Terminal Aerodrome Forecast
Issued by NWS Sterling, VA

Current Version | Previous Version | Text Only | Print | Product List | Glossary Off
Versions: 1 2 3 4 5 6 7 8 9 10 11 12 13 14 15 16

000
FTUS41 KLWX 190816 AAA
TAFMRB
TAF AMD
KMRB 190816Z 1908/2006 36006KT P6SM OVC040
     FM191000 VRB03KT 3SM BR BKN008
     FM191100 VRB03KT 2SM BR BKN004
     FM191200 36004KT 2SM BR BKN008
     FM191400 36006KT 5SM BR SCT008
     FM191600 36006KT P6SM SKC=

USA.gov is the U.S. government's official web portal to all federal, state and local government web resources and services.